Time;durP1;ratioP1;P1;durP2;ratioP2;P2;SDS_P1;SDS_P2;PMS_P1;PMS_P2;Temp;Humidity;BMP_temperature;BMP_pressure;BME280_temperature;BME280_humidity;BME280_pressure;Samples;Min_cycle;Max_cycle;Signal;HPM_P1;HPM_P2
2022/04/28 00:00:40;;;;;;;8.08;7.28;;;;;;;12.44;57.64;99743.73;1720560;82;21532;-68
2022/04/28 00:03:09;;;;;;;8.68;7.87;;;;;;;12.46;57.70;99743.07;1725202;82;21048;-67
2022/04/28 00:05:36;;;;;;;29.37;8.03;;;;;;;12.46;57.60;99743.91;1720417;82;20946;-66
2022/04/28 00:08:05;;;;;;;7.75;6.95;;;;;;;12.46;57.52;99745.24;1720520;82;20998;-65
2022/04/28 00:10:32;;;;;;;7.80;7.10;;;;;;;12.48;57.70;99746.39;1720567;82;20998;-64
2022/04/28 00:13:00;;;;;;;8.70;7.80;;;;;;;12.47;57.59;99742.87;1720491;82;20934;-64
2022/04/28 00:15:29;;;;;;;11.57;7.80;;;;;;;12.45;57.31;99740.06;1720651;82;22093;-66
2022/04/28 00:17:56;;;;;;;7.08;6.42;;;;;;;12.46;56.94;99744.41;1720148;82;20959;-67
2022/04/28 00:20:23;;;;;;;7.28;6.67;;;;;;;12.46;56.85;99745.24;1720432;82;20975;-70
2022/04/28 00:22:50;;;;;;;7.12;6.53;;;;;;;12.49;57.64;99752.06;1720365;82;20946;-65
2022/04/28 00:25:20;;;;;;;7.17;6.58;;;;;;;12.45;58.07;99760.91;1720638;82;20938;-69
2022/04/28 00:27:48;;;;;;;6.95;6.25;;;;;;;12.37;58.38;99763.63;1720471;82;20899;-67
2022/04/28 00:30:14;;;;;;;7.28;6.58;;;;;;;12.32;58.71;99768.65;1720490;82;20978;-68
2022/04/28 00:32:41;;;;;;;7.45;6.78;;;;;;;12.22;59.08;99771.54;1724688;82;20902;-64
2022/04/28 00:35:08;;;;;;;8.85;8.05;;;;;;;12.17;59.34;99767.23;1726531;82;20995;-66
2022/04/28 00:37:35;;;;;;;8.70;7.97;;;;;;;12.13;59.31;99767.23;1720443;82;20959;-67
2022/04/28 00:40:05;;;;;;;9.65;8.68;;;;;;;12.14;59.19;99766.23;1713219;82;21280;-68
2022/04/28 00:42:33;;;;;;;10.85;9.30;;;;;;;12.18;58.95;99762.70;1722817;82;21555;-67
2022/04/28 00:44:59;;;;;;;9.13;8.25;;;;;;;12.18;58.85;99765.37;1720311;82;20950;-69
2022/04/28 00:50:38;;;;;;;9.28;8.43;;;;;;;12.17;59.01;99765.06;1720479;82;21646;-69
2022/04/28 00:52:42;;;;;;;9.30;7.85;;;;;;;12.08;59.46;99769.59;1725334;82;21170;-64
2022/04/28 00:55:10;;;;;;;9.50;8.43;;;;;;;12.05;59.60;99772.59;1728506;82;21422;-65
2022/04/28 00:57:38;;;;;;;8.90;8.00;;;;;;;12.06;59.79;99778.27;1720525;82;20899;-64
2022/04/28 01:00:06;;;;;;;8.73;7.80;;;;;;;12.05;59.89;99778.42;1736248;82;21501;-65
2022/04/28 01:02:35;;;;;;;9.45;8.40;;;;;;;12.00;60.01;99770.95;1748506;82;21011;-69
2022/04/28 01:05:03;;;;;;;9.98;7.87;;;;;;;11.98;60.25;99768.96;1724859;82;22111;-67
2022/04/28 01:07:31;;;;;;;10.32;7.90;;;;;;;11.94;60.41;99764.16;1722884;82;20879;-68
2022/04/28 01:09:59;;;;;;;7.12;6.37;;;;;;;11.91;60.52;99772.49;1722761;82;20990;-69
2022/04/28 01:12:26;;;;;;;9.40;6.62;;;;;;;11.85;60.52;99767.34;1731975;82;21087;-65
2022/04/28 01:14:56;;;;;;;10.23;7.70;;;;;;;11.84;60.49;99768.83;1730134;82;20981;-66
2022/04/28 01:17:25;;;;;;;8.13;7.33;;;;;;;11.82;60.87;99773.01;1696987;82;21270;-67
2022/04/28 01:19:57;;;;;;;9.48;8.40;;;;;;;11.80;61.17;99771.02;1723153;82;21505;-67
2022/04/28 01:22:26;;;;;;;9.30;8.40;;;;;;;11.77;61.49;99779.35;1741422;82;21184;-66
2022/04/28 01:24:55;;;;;;;10.50;8.60;;;;;;;11.74;61.70;99773.03;1719923;82;21044;-67
2022/04/28 01:27:24;;;;;;;8.85;7.40;;;;;;;11.65;61.75;99770.84;1751541;82;21042;-64
2022/04/28 01:29:51;;;;;;;9.93;7.10;;;;;;;11.65;61.69;99764.70;1690966;83;21297;-70
2022/04/28 01:32:18;;;;;;;7.78;6.97;;;;;;;11.63;61.60;99761.36;1721410;82;21439;-64
2022/04/28 01:34:45;;;;;;;9.03;6.97;;;;;;;11.62;61.45;99755.72;1729632;82;21130;-66
2022/04/28 01:37:13;;;;;;;7.58;6.83;;;;;;;11.61;61.36;99758.03;1723619;82;20935;-68
2022/04/28 01:39:40;;;;;;;10.65;7.12;;;;;;;11.59;61.36;99754.72;1722720;82;20998;-67
2022/04/28 01:42:08;;;;;;;10.25;7.22;;;;;;;11.58;61.28;99753.88;1729783;82;20934;-66
2022/04/28 01:44:37;;;;;;;7.05;6.45;;;;;;;11.55;61.14;99749.41;1731917;82;21006;-64
2022/04/28 01:47:04;;;;;;;7.50;6.80;;;;;;;11.50;61.12;99751.72;1730400;82;20998;-67
2022/04/28 01:49:32;;;;;;;7.75;5.25;;;;;;;11.46;61.17;99743.26;1743230;82;21041;-67
2022/04/28 01:55:09;;;;;;;6.33;5.40;;;;;;;11.40;60.86;99745.26;1708863;82;21483;-64
2022/04/28 01:57:48;;;;;;;5.70;4.95;;;;;;;11.38;60.67;99741.09;1729218;82;21473;-67
2022/04/28 02:00:32;;;;;;;5.40;4.90;;;;;;;11.36;60.33;99743.11;1685833;83;20922;-67
2022/04/28 02:03:04;;;;;;;6.25;5.65;;;;;;;11.32;60.13;99741.77;1719874;82;20967;-66
2022/04/28 02:05:31;;;;;;;6.35;5.05;;;;;;;11.32;59.88;99748.42;1707030;82;21434;-67
2022/04/28 02:07:59;;;;;;;6.05;5.45;;;;;;;11.28;59.86;99742.63;1712195;82;21270;-64
2022/04/28 02:10:25;;;;;;;5.42;4.92;;;;;;;11.23;60.10;99746.78;1704511;82;20948;-66
2022/04/28 02:12:55;;;;;;;5.50;5.00;;;;;;;11.20;60.29;99744.45;1713117;82;20983;-68
2022/04/28 02:15:27;;;;;;;6.35;5.75;;;;;;;11.13;60.24;99748.30;1710243;82;21568;-68
2022/04/28 02:18:03;;;;;;;5.90;5.30;;;;;;;11.10;60.22;99741.48;1725217;82;20963;-68
2022/04/28 02:20:31;;;;;;;6.12;5.50;;;;;;;11.10;60.22;99737.98;1704590;82;21144;-67
2022/04/28 02:22:58;;;;;;;5.97;5.08;;;;;;;11.10;60.17;99744.14;1711286;82;20944;-67
2022/04/28 02:25:26;;;;;;;6.47;4.72;;;;;;;11.05;59.97;99741.12;1704601;82;21643;-69
2022/04/28 02:27:55;;;;;;;4.53;4.12;;;;;;;11.02;59.87;99744.14;1707546;82;21003;-64
2022/04/28 02:30:21;;;;;;;4.60;4.20;;;;;;;11.01;59.76;99746.95;1708052;81;20892;-64
2022/04/28 02:35:37;;;;;;;5.15;4.33;;;;;;;10.98;59.76;99747.28;1714166;82;21533;-65
2022/04/28 02:38:04;;;;;;;4.92;4.42;;;;;;;10.98;59.71;99750.78;1704711;82;20986;-65
2022/04/28 02:40:31;;;;;;;4.53;4.12;;;;;;;10.99;59.70;99751.61;1710582;82;20955;-68
2022/04/28 02:43:01;;;;;;;5.10;4.60;;;;;;;10.98;59.71;99750.78;1723330;82;20971;-68
2022/04/28 02:45:30;;;;;;;4.80;4.30;;;;;;;10.99;59.52;99756.45;1723603;82;21765;-68
2022/04/28 02:47:59;;;;;;;4.67;4.28;;;;;;;10.98;59.41;99749.94;1709683;82;21018;-65
2022/04/28 02:50:27;;;;;;;4.33;3.72;;;;;;;10.95;59.31;99754.30;1689806;82;20864;-66
2022/04/28 02:52:55;;;;;;;4.28;3.87;;;;;;;10.92;59.21;99751.95;1723791;82;20975;-67
2022/04/28 02:55:22;;;;;;;7.75;3.72;;;;;;;10.89;59.14;99758.45;1732894;81;21022;-67
2022/04/28 02:57:49;;;;;;;3.98;3.58;;;;;;;10.87;59.04;99763.08;1704469;82;21238;-67
2022/04/28 03:00:16;;;;;;;4.33;3.80;;;;;;;10.85;59.00;99770.89;1719467;82;20887;-68
2022/04/28 03:02:45;;;;;;;4.22;3.40;;;;;;;10.81;58.96;99777.06;1722891;82;20979;-63
2022/04/28 03:05:13;;;;;;;4.08;3.62;;;;;;;10.81;58.98;99781.55;1735149;82;20941;-68
2022/04/28 03:10:52;;;;;;;3.80;3.50;;;;;;;10.77;58.81;99782.86;1731506;82;21287;-66
2022/04/28 03:13:22;;;;;;;4.50;3.12;;;;;;;10.73;58.69;99779.71;1722692;82;21576;-67
2022/04/28 03:15:50;;;;;;;3.55;3.25;;;;;;;10.70;58.55;99785.36;1722706;82;21505;-65
2022/04/28 03:18:18;;;;;;;4.28;3.00;;;;;;;10.68;58.47;99780.70;1732195;82;20863;-65
2022/04/28 03:20:44;;;;;;;3.77;2.95;;;;;;;10.69;58.38;99782.88;1723000;82;20990;-67
2022/04/28 03:23:13;;;;;;;3.00;2.37;;;;;;;10.68;58.26;99785.19;1722906;82;21028;-66
2022/04/28 03:25:41;;;;;;;3.62;2.67;;;;;;;10.65;58.13;99790.34;1722632;82;21019;-68
2022/04/28 03:28:09;;;;;;;3.42;3.00;;;;;;;10.67;57.95;99796.31;1722695;82;20899;-65
2022/04/28 03:30:37;;;;;;;3.17;2.87;;;;;;;10.71;57.76;99795.51;1750902;82;20915;-64
2022/04/28 03:33:14;;;;;;;3.72;2.90;;;;;;;10.74;57.55;99799.17;1751132;82;20930;-67
2022/04/28 03:35:41;;;;;;;4.60;2.95;;;;;;;10.76;57.48;99806.00;1751433;82;21277;-64
2022/04/28 03:38:11;;;;;;;3.90;2.87;;;;;;;10.82;57.27;99810.64;1750324;82;20959;-67
2022/04/28 03:40:40;;;;;;;4.00;3.27;;;;;;;10.89;57.08;99808.17;1732530;82;21001;-66
2022/04/28 03:43:09;;;;;;;3.15;2.85;;;;;;;10.98;56.85;99816.00;1722903;82;20950;-68
2022/04/28 03:45:37;;;;;;;4.50;3.20;;;;;;;11.09;56.55;99817.02;1727927;82;21512;-69
2022/04/28 03:48:10;;;;;;;5.37;3.87;;;;;;;11.21;56.44;99816.70;1722430;82;21151;-69
2022/04/28 03:50:37;;;;;;;5.22;3.83;;;;;;;11.34;56.35;99806.38;1732090;82;20879;-65
2022/04/28 03:53:05;;;;;;;4.42;3.47;;;;;;;11.43;56.26;99810.19;1715195;82;20990;-66
2022/04/28 03:55:31;;;;;;;4.33;3.85;;;;;;;11.49;56.14;99800.70;1739169;82;21023;-67
2022/04/28 03:57:59;;;;;;;4.75;3.15;;;;;;;11.55;56.03;99808.84;1722885;82;21132;-68
2022/04/28 04:00:28;;;;;;;3.22;2.92;;;;;;;11.60;55.77;99811.02;1723932;82;21257;-66
2022/04/28 04:02:57;;;;;;;3.42;3.12;;;;;;;11.62;55.43;99818.33;1727824;82;20974;-67
2022/04/28 04:05:27;;;;;;;6.55;4.72;;;;;;;11.61;55.22;99819.32;1716736;82;20896;-68
2022/04/28 04:07:55;;;;;;;5.50;4.25;;;;;;;11.63;54.98;99822.64;1704627;82;21505;-67
2022/04/28 04:10:24;;;;;;;8.33;6.35;;;;;;;11.68;54.94;99825.63;1702861;82;20947;-68
2022/04/28 04:12:54;;;;;;;6.22;4.35;;;;;;;11.71;54.75;99825.33;1711255;82;20908;-68
2022/04/28 04:15:22;;;;;;;6.58;4.05;;;;;;;11.73;54.63;99828.16;1710802;82;20847;-67
2022/04/28 04:17:52;;;;;;;4.08;3.42;;;;;;;11.78;54.58;99830.34;1704690;82;21015;-67
2022/04/28 04:20:21;;;;;;;4.67;3.33;;;;;;;11.80;54.75;99828.83;1704785;82;21002;-68
2022/04/28 04:22:50;;;;;;;4.08;3.30;;;;;;;11.83;54.67;99835.99;1715877;82;20987;-68
2022/04/28 04:25:18;;;;;;;3.90;3.45;;;;;;;11.85;54.49;99833.14;1726549;81;20956;-64
2022/04/28 04:27:47;;;;;;;3.83;3.52;;;;;;;11.88;54.43;99830.98;1704503;82;21051;-65
2022/04/28 04:33:06;;;;;;;12.82;3.75;;;;;;;12.01;54.21;99837.95;1702210;83;21557;-69
2022/04/28 04:35:33;;;;;;;5.40;3.02;;;;;;;12.02;54.21;99835.59;1704422;83;21011;-66
2022/04/28 04:38:00;;;;;;;3.92;3.12;;;;;;;12.04;54.20;99836.28;1706607;83;21446;-66
2022/04/28 04:40:30;;;;;;;5.78;4.42;;;;;;;12.06;54.06;99833.42;1716194;83;21007;-67
2022/04/28 04:42:59;;;;;;;6.75;5.42;;;;;;;12.05;53.91;99835.26;1713625;82;20869;-66
2022/04/28 04:45:25;;;;;;;5.72;4.47;;;;;;;12.09;53.84;99838.42;1706035;82;21047;-64
2022/04/28 04:47:55;;;;;;;6.10;3.40;;;;;;;12.15;53.78;99843.89;1703464;82;21055;-65
2022/04/28 04:50:24;;;;;;;5.08;3.08;;;;;;;12.26;53.61;99850.20;1702120;82;21497;-67
2022/04/28 04:53:04;;;;;;;9.15;3.47;;;;;;;12.36;53.30;99847.31;1707112;82;21533;-67
2022/04/28 04:55:33;;;;;;;5.62;3.35;;;;;;;12.46;52.88;99855.98;1719945;81;20947;-68
2022/04/28 04:58:03;;;;;;;6.40;3.40;;;;;;;12.53;52.58;99862.27;1704807;82;21002;-65
2022/04/28 05:00:30;;;;;;;3.95;3.55;;;;;;;12.60;52.36;99867.73;1709206;82;21027;-65
2022/04/28 05:03:15;;;;;;;4.00;3.60;;;;;;;12.65;52.19;99872.05;1707325;82;21269;-66
2022/04/28 05:06:00;;;;;;;4.95;3.42;;;;;;;12.80;51.79;99874.33;1725930;82;21762;-65
2022/04/28 05:08:31;;;;;;;3.90;3.50;;;;;;;13.13;51.43;99864.30;1693622;82;20995;-65
2022/04/28 05:11:01;;;;;;;4.37;3.80;;;;;;;13.60;50.58;99865.79;1731956;82;20975;-65
2022/04/28 05:13:29;;;;;;;6.10;3.92;;;;;;;13.96;49.68;99864.61;1728864;81;20895;-69
2022/04/28 05:15:57;;;;;;;4.60;3.62;;;;;;;14.29;48.43;99873.64;1719689;82;22457;-67
2022/04/28 05:18:36;;;;;;;6.50;4.30;;;;;;;14.42;47.83;99869.30;1703685;82;21493;-65
2022/04/28 05:21:04;;;;;;;7.28;4.62;;;;;;;14.55;47.17;99873.50;1670285;82;21617;-67
2022/04/28 05:23:51;;;;;;;8.88;4.45;;;;;;;14.60;46.75;99873.77;1732675;81;20904;-66
2022/04/28 05:26:36;;;;;;;6.25;3.90;;;;;;;14.91;46.11;99882.09;1704775;82;21062;-67
2022/04/28 05:29:18;;;;;;;5.22;3.55;;;;;;;15.41;45.51;99883.34;1668680;82;20959;-65
2022/04/28 05:31:46;;;;;;;9.75;3.35;;;;;;;16.08;44.12;99881.06;1730034;82;21114;-67
2022/04/28 05:34:15;;;;;;;5.80;2.83;;;;;;;16.75;43.26;99885.30;1663294;85;21039;-67
2022/04/28 05:36:46;;;;;;;10.20;3.15;;;;;;;17.46;41.91;99883.03;1657016;85;21077;-68
2022/04/28 05:39:15;;;;;;;7.90;3.10;;;;;;;18.16;40.52;99885.13;1656197;85;21481;-69
2022/04/28 05:41:41;;;;;;;5.00;2.70;;;;;;;18.80;39.24;99879.80;1655541;85;21327;-66
2022/04/28 05:46:55;;;;;;;4.90;2.67;;;;;;;20.09;36.92;99872.95;1697345;83;21027;-65
2022/04/28 05:49:22;;;;;;;4.83;2.67;;;;;;;20.88;35.69;99873.75;1696863;83;20960;-66
2022/04/28 05:51:52;;;;;;;3.90;2.10;;;;;;;21.57;34.47;99874.28;1704518;82;20888;-66
2022/04/28 05:54:20;;;;;;;4.45;2.52;;;;;;;22.20;33.27;99873.16;1718193;82;21841;-66
2022/04/28 05:56:47;;;;;;;3.70;2.42;;;;;;;22.79;31.70;99875.58;1704823;81;20928;-65
2022/04/28 05:59:17;;;;;;;4.25;2.40;;;;;;;23.37;30.26;99874.56;1704569;82;20920;-66
2022/04/28 06:01:48;;;;;;;5.03;2.65;;;;;;;23.73;29.63;99871.41;1703827;82;20916;-64
2022/04/28 06:04:17;;;;;;;3.25;2.12;;;;;;;24.08;28.84;99872.03;1717507;82;20947;-67
2022/04/28 06:06:47;;;;;;;2.85;2.37;;;;;;;24.39;28.28;99871.93;1722233;82;20939;-65
2022/04/28 06:09:29;;;;;;;3.47;2.20;;;;;;;24.64;27.75;99872.27;1727135;82;20916;-68
2022/04/28 06:11:56;;;;;;;4.85;2.27;;;;;;;24.97;27.17;99872.72;1720449;82;21067;-67
2022/04/28 06:14:23;;;;;;;3.70;2.15;;;;;;;25.27;26.54;99875.77;1733440;82;21079;-71
2022/04/28 06:16:56;;;;;;;2.37;2.15;;;;;;;25.53;26.13;99880.43;1724141;82;21630;-64
2022/04/28 06:19:25;;;;;;;3.52;2.62;;;;;;;25.72;25.77;99876.26;1719821;82;21167;-63
2022/04/28 06:21:58;;;;;;;3.42;2.37;;;;;;;25.90;26.15;99880.48;1709663;82;20962;-63
2022/04/28 06:24:26;;;;;;;2.40;1.95;;;;;;;26.03;26.12;99881.41;1733966;82;21006;-68
2022/04/28 06:26:55;;;;;;;4.90;2.10;;;;;;;26.17;25.90;99877.73;1731117;82;21049;-64
2022/04/28 06:29:21;;;;;;;2.42;2.05;;;;;;;26.32;24.87;99881.38;1728138;82;21021;-66
2022/04/28 06:31:49;;;;;;;2.52;1.65;;;;;;;26.59;24.76;99879.91;1739573;82;21245;-66
2022/04/28 06:34:31;;;;;;;2.98;1.72;;;;;;;26.90;23.86;99878.99;1687852;82;20967;-64
2022/04/28 06:36:57;;;;;;;2.65;1.65;;;;;;;27.12;22.25;99880.14;1726784;82;21041;-65
2022/04/28 06:39:24;;;;;;;5.80;1.70;;;;;;;27.37;22.19;99875.30;1719841;82;21010;-67
2022/04/28 06:41:51;;;;;;;3.62;2.20;;;;;;;27.79;21.96;99880.03;1742253;82;21054;-65
2022/04/28 06:44:20;;;;;;;2.35;1.50;;;;;;;28.14;21.76;99873.20;1734428;82;21235;-68
2022/04/28 06:47:05;;;;;;;2.75;1.50;;;;;;;28.39;21.15;99863.31;1734784;82;21034;-66
2022/04/28 06:49:34;;;;;;;4.20;1.60;;;;;;;28.52;19.80;99876.41;1726604;82;21010;-66
2022/04/28 06:52:20;;;;;;;2.62;1.20;;;;;;;28.47;19.73;99880.53;1730971;82;20991;-64
2022/04/28 06:55:06;;;;;;;4.10;1.20;;;;;;;28.43;19.33;99879.43;1735098;82;20950;-65
2022/04/28 06:57:35;;;;;;;1.45;1.32;;;;;;;28.58;19.10;99882.13;1746393;82;20885;-66
2022/04/28 07:00:05;;;;;;;2.47;1.00;;;;;;;28.66;18.34;99882.41;1737964;80;21113;-67
2022/04/28 07:02:34;;;;;;;4.15;1.55;;;;;;;28.60;17.83;99879.95;1733430;80;21022;-68
2022/04/28 07:05:03;;;;;;;2.85;1.22;;;;;;;28.47;17.93;99888.74;1738755;82;20955;-65
2022/04/28 07:07:32;;;;;;;7.47;1.55;;;;;;;28.37;17.45;99886.00;1715539;82;20983;-66
2022/04/28 07:10:01;;;;;;;2.30;1.25;;;;;;;28.25;17.50;99888.22;1710835;82;22186;-68
2022/04/28 07:12:31;;;;;;;1.37;1.25;;;;;;;28.22;17.29;99886.86;1709854;82;21003;-66
2022/04/28 07:14:59;;;;;;;2.30;1.47;;;;;;;28.24;17.71;99887.39;1713295;81;21302;-65
2022/04/28 07:17:44;;;;;;;2.77;1.10;;;;;;;28.47;17.85;99892.27;1716363;82;21050;-65
2022/04/28 07:20:12;;;;;;;2.92;1.32;;;;;;;28.69;17.45;99886.50;1715978;82;20943;-66
2022/04/28 07:22:40;;;;;;;2.55;1.20;;;;;;;28.74;17.52;99887.31;1699595;83;21163;-67
2022/04/28 07:25:09;;;;;;;1.57;1.15;;;;;;;28.94;17.61;99885.03;1702055;83;21538;-68
2022/04/28 07:27:36;;;;;;;3.12;1.22;;;;;;;29.27;17.35;99887.65;1712990;82;21144;-65
2022/04/28 07:30:08;;;;;;;2.47;1.30;;;;;;;29.53;17.01;99881.45;1700850;83;21059;-66
2022/04/28 07:32:43;;;;;;;1.77;1.00;;;;;;;29.88;16.96;99888.06;1702918;83;22288;-67
2022/04/28 07:35:15;;;;;;;4.50;1.20;;;;;;;30.27;16.73;99878.41;1708638;82;21213;-66
2022/04/28 07:38:01;;;;;;;1.30;1.20;;;;;;;30.53;16.54;99886.09;1717812;83;21514;-67
2022/04/28 07:40:33;;;;;;;3.92;1.32;;;;;;;30.71;16.27;99879.05;1713375;82;21514;-66
2022/04/28 07:43:03;;;;;;;1.22;1.10;;;;;;;30.91;15.75;99878.00;1700003;83;20999;-67
2022/04/28 07:45:30;;;;;;;2.15;1.10;;;;;;;31.17;15.06;99876.55;1699583;83;21019;-68
2022/04/28 07:47:57;;;;;;;3.22;1.40;;;;;;;31.31;15.15;99875.27;1704452;82;21216;-67
2022/04/28 07:50:26;;;;;;;1.67;0.98;;;;;;;31.27;15.25;99882.45;1704396;82;20999;-67
2022/04/28 07:52:55;;;;;;;1.10;0.80;;;;;;;31.21;14.93;99878.95;1704107;82;20997;-66
2022/04/28 07:55:23;;;;;;;2.55;1.20;;;;;;;31.19;14.60;99882.56;1704410;82;21038;-66
2022/04/28 07:57:51;;;;;;;3.05;1.10;;;;;;;31.21;14.63;99878.16;1704566;82;20856;-66
2022/04/28 08:00:20;;;;;;;2.60;0.72;;;;;;;31.12;14.77;99886.24;1705975;82;22259;-69
2022/04/28 08:02:50;;;;;;;1.60;1.42;;;;;;;30.93;15.01;99888.13;1714304;82;21085;-67
2022/04/28 08:05:18;;;;;;;1.60;1.22;;;;;;;30.98;15.15;99888.06;1704522;82;21014;-67
2022/04/28 08:07:46;;;;;;;3.42;1.02;;;;;;;31.21;15.36;99880.33;1718222;82;21014;-67
2022/04/28 08:10:14;;;;;;;3.33;1.10;;;;;;;31.04;15.39;99889.64;1722617;82;21038;-67
2022/04/28 08:12:42;;;;;;;2.22;1.07;;;;;;;31.07;15.37;99876.14;1722654;82;21868;-67
2022/04/28 08:15:14;;;;;;;0.82;0.80;;;;;;;30.73;15.53;99882.86;1718961;82;20895;-67
2022/04/28 08:17:43;;;;;;;0.82;0.78;;;;;;;30.98;14.86;99886.14;1747245;82;21564;-67
2022/04/28 08:20:11;;;;;;;1.22;0.82;;;;;;;31.18;15.16;99878.20;1722512;82;20891;-66
2022/04/28 08:22:38;;;;;;;1.15;0.90;;;;;;;31.18;15.26;99878.20;1751483;82;21024;-67
2022/04/28 08:25:08;;;;;;;1.52;1.10;;;;;;;30.82;15.07;99874.22;1722295;82;21502;-68
2022/04/28 08:27:35;;;;;;;2.05;1.30;;;;;;;30.15;15.62;99884.27;1751465;82;20903;-67
2022/04/28 08:30:06;;;;;;;3.42;1.10;;;;;;;29.56;15.90;99879.52;1751598;82;20895;-65
2022/04/28 08:32:34;;;;;;;1.25;1.00;;;;;;;28.80;16.37;99874.42;1751500;82;21094;-67
2022/04/28 08:35:00;;;;;;;2.77;1.20;;;;;;;27.78;16.97;99883.84;1750786;82;21331;-66
2022/04/28 08:37:29;;;;;;;2.42;1.10;;;;;;;26.96;17.92;99891.55;1751156;82;21170;-66
2022/04/28 08:39:56;;;;;;;2.10;1.00;;;;;;;26.35;18.34;99900.48;1751364;82;20887;-67
2022/04/28 08:42:23;;;;;;;1.17;0.88;;;;;;;25.73;18.59;99895.59;1751170;82;21014;-66
2022/04/28 08:44:59;;;;;;;1.67;1.22;;;;;;;25.31;19.15;99892.44;1744325;82;21034;-66
2022/04/28 08:47:27;;;;;;;1.50;1.40;;;;;;;24.99;19.47;99895.06;1740107;82;20931;-67
2022/04/28 08:50:00;;;;;;;3.25;1.20;;;;;;;24.56;19.61;99893.92;1731394;81;21537;-66
2022/04/28 08:52:31;;;;;;;4.00;1.90;;;;;;;24.15;20.19;99890.33;1746301;82;21545;-66
2022/04/28 08:55:02;;;;;;;2.60;1.87;;;;;;;23.81;20.66;99885.41;1751162;82;20966;-66
2022/04/28 08:57:33;;;;;;;7.05;2.58;;;;;;;23.39;21.08;99884.67;1742097;82;21061;-65
2022/04/28 09:00:01;;;;;;;4.08;2.20;;;;;;;23.06;21.58;99890.78;1741870;82;21587;-66
2022/04/28 09:02:31;;;;;;;2.98;1.62;;;;;;;22.81;22.02;99880.78;1722473;82;21619;-68
2022/04/28 09:05:19;;;;;;;1.98;1.70;;;;;;;22.50;22.61;99890.92;1686641;85;21599;-66
2022/04/28 09:07:49;;;;;;;2.85;1.47;;;;;;;22.20;22.91;99891.59;1681600;85;20963;-67
2022/04/28 09:10:32;;;;;;;3.10;2.20;;;;;;;21.98;23.01;99892.70;1706547;82;21465;-67
2022/04/28 09:16:06;;;;;;;7.15;2.22;;;;;;;23.00;22.40;99877.64;1742470;82;20984;-67
2022/04/28 09:18:33;;;;;;;6.67;2.17;;;;;;;24.65;21.48;99870.38;1742904;82;20907;-67
2022/04/28 09:21:00;;;;;;;5.70;2.70;;;;;;;26.12;20.60;99869.48;1743139;81;21126;-66
2022/04/28 09:23:30;;;;;;;4.35;2.20;;;;;;;27.67;19.07;99856.23;1742883;82;21498;-67
2022/04/28 09:25:59;;;;;;;2.45;1.90;;;;;;;29.05;17.96;99851.56;1715110;82;21453;-67
2022/04/28 09:28:26;;;;;;;2.05;1.50;;;;;;;30.20;16.68;99857.33;1742952;82;21338;-67
2022/04/28 09:30:55;;;;;;;4.22;2.10;;;;;;;31.21;15.76;99855.59;1679061;83;20947;-66
2022/04/28 09:33:24;;;;;;;1.65;1.55;;;;;;;32.06;15.08;99860.36;1730591;80;21183;-67
2022/04/28 09:35:54;;;;;;;1.67;1.47;;;;;;;32.80;14.65;99849.56;1742860;81;20919;-66
2022/04/28 09:38:26;;;;;;;3.27;2.00;;;;;;;33.36;14.27;99845.61;1741113;82;21058;-66
2022/04/28 09:43:38;;;;;;;3.33;1.72;;;;;;;33.84;13.47;99860.45;1743032;81;21435;-67
2022/04/28 09:46:07;;;;;;;5.12;1.67;;;;;;;33.91;13.19;99860.84;1743044;81;20999;-66
2022/04/28 09:48:36;;;;;;;1.75;1.50;;;;;;;33.99;13.09;99860.64;1743096;81;20959;-67
2022/04/28 09:51:07;;;;;;;1.95;1.25;;;;;;;34.19;12.93;99852.41;1742974;82;20947;-65
2022/04/28 09:53:37;;;;;;;1.87;1.30;;;;;;;34.15;12.98;99849.48;1738946;82;21159;-66
2022/04/28 09:56:06;;;;;;;4.20;1.40;;;;;;;34.17;13.13;99851.92;1740087;82;21544;-66
2022/04/28 09:58:38;;;;;;;1.77;1.47;;;;;;;34.56;13.26;99851.41;1741658;82;21493;-66
2022/04/28 10:01:06;;;;;;;2.10;1.92;;;;;;;34.90;12.68;99849.31;1743004;81;21064;-66
2022/04/28 10:03:37;;;;;;;5.28;2.20;;;;;;;34.94;12.10;99851.66;1699748;82;21647;-67
2022/04/28 10:06:05;;;;;;;3.27;1.80;;;;;;;34.23;12.38;99850.66;1714547;82;21179;-67
2022/04/28 10:08:52;;;;;;;1.70;1.60;;;;;;;32.60;13.40;99854.67;1722342;82;20985;-66
2022/04/28 10:11:24;;;;;;;1.67;1.57;;;;;;;31.27;14.32;99853.05;1722917;82;20939;-66
2022/04/28 10:13:51;;;;;;;3.27;1.67;;;;;;;30.12;15.00;99856.03;1732538;82;20978;-66
2022/04/28 10:16:22;;;;;;;1.90;1.80;;;;;;;28.98;16.11;99855.17;1732621;82;20931;-66
2022/04/28 10:19:19;;;;;;;1.90;1.77;;;;;;;28.06;16.81;99852.41;1703002;82;21177;-66
2022/04/28 10:22:03;;;;;;;6.47;2.85;;;;;;;27.05;17.75;99863.20;1722649;82;20934;-67
2022/04/28 10:33:19;;;;;;;2.67;2.00;;;;;;;24.55;19.88;99850.14;1751499;82;21260;-66
2022/04/28 10:35:55;;;;;;;2.67;2.42;;;;;;;23.83;20.58;99856.63;1751354;82;20938;-66
2022/04/28 10:38:30;;;;;;;2.65;2.20;;;;;;;23.40;21.05;99856.44;1751476;82;21422;-66
2022/04/28 10:41:08;;;;;;;2.50;2.30;;;;;;;23.09;21.51;99857.21;1751596;82;20959;-66
2022/04/28 10:43:38;;;;;;;2.50;2.30;;;;;;;22.95;21.88;99863.97;1751470;82;20884;-66
2022/04/28 10:46:19;;;;;;;3.08;2.10;;;;;;;22.87;21.98;99860.28;1751382;82;21876;-66
2022/04/28 10:48:44;;;;;;;3.60;3.30;;;;;;;22.89;22.39;99858.15;1750814;82;20895;-66
2022/04/28 10:51:29;;;;;;;3.98;3.65;;;;;;;23.10;22.30;99852.61;1751329;82;21104;-67
2022/04/28 10:54:19;;;;;;;2.73;2.47;;;;;;;23.21;21.95;99855.26;1751721;82;21058;-67
2022/04/28 10:56:54;;;;;;;2.30;2.10;;;;;;;23.27;22.43;99849.39;1751205;82;21038;-66
2022/04/28 10:59:34;;;;;;;3.87;2.15;;;;;;;23.23;22.68;99845.53;1751351;82;21902;-66
2022/04/28 11:02:21;;;;;;;2.90;2.17;;;;;;;23.24;22.71;99845.80;1751335;82;20986;-66
2022/04/28 11:05:04;;;;;;;3.12;2.37;;;;;;;23.24;23.07;99845.28;1732198;82;21236;-66
2022/04/28 11:07:30;;;;;;;3.17;2.30;;;;;;;23.16;22.99;99850.27;1700766;82;21494;-66
2022/04/28 11:10:02;;;;;;;2.67;2.47;;;;;;;23.09;23.04;99847.72;1732744;81;20947;-66
2022/04/28 11:12:35;;;;;;;3.15;2.70;;;;;;;22.96;23.02;99854.78;1693414;82;21383;-65
2022/04/28 11:15:07;;;;;;;2.95;2.50;;;;;;;22.78;22.96;99853.61;1732708;82;20987;-67
2022/04/28 11:17:38;;;;;;;3.20;2.90;;;;;;;22.60;23.28;99845.05;1712434;82;20912;-67
2022/04/28 11:20:18;;;;;;;3.37;2.87;;;;;;;22.51;23.27;99844.31;1732580;82;21482;-66
2022/04/28 11:22:51;;;;;;;5.80;2.95;;;;;;;22.52;23.46;99847.33;1731894;82;21434;-67
2022/04/28 11:25:22;;;;;;;4.17;3.17;;;;;;;22.60;23.55;99845.61;1723288;82;20848;-67
2022/04/28 11:27:51;;;;;;;3.58;3.10;;;;;;;22.62;23.62;99840.77;1723554;82;21383;-67
2022/04/28 11:30:22;;;;;;;3.40;3.10;;;;;;;22.68;23.19;99842.55;1723984;82;21009;-66
2022/04/28 11:32:52;;;;;;;3.87;3.10;;;;;;;22.74;23.15;99827.48;1732755;81;21407;-67
2022/04/28 11:35:20;;;;;;;3.25;2.95;;;;;;;22.77;23.24;99828.06;1732039;82;20995;-67
2022/04/28 11:37:50;;;;;;;5.33;3.40;;;;;;;22.80;22.91;99826.23;1732543;82;21150;-66
2022/04/28 11:40:16;;;;;;;3.20;2.90;;;;;;;22.74;22.75;99831.56;1711477;82;21074;-66
2022/04/28 11:42:44;;;;;;;4.15;2.47;;;;;;;22.59;23.00;99829.03;1732249;81;21062;-66
2022/04/28 11:45:12;;;;;;;3.87;3.08;;;;;;;22.39;23.17;99829.97;1732757;81;20912;-66
2022/04/28 11:47:45;;;;;;;3.87;2.72;;;;;;;22.19;23.31;99831.69;1732756;82;21446;-66
2022/04/28 11:50:21;;;;;;;5.78;2.98;;;;;;;22.06;23.30;99827.34;1732605;82;21237;-67
2022/04/28 11:53:07;;;;;;;3.98;2.60;;;;;;;22.01;23.30;99827.22;1732505;81;21536;-67
2022/04/28 11:55:38;;;;;;;3.27;3.02;;;;;;;21.95;23.32;99828.71;1732599;81;21540;-65
2022/04/28 11:58:04;;;;;;;3.25;2.30;;;;;;;21.86;23.45;99825.52;1725028;81;21374;-65
2022/04/28 12:00:44;;;;;;;3.52;2.15;;;;;;;21.77;23.50;99820.66;1704565;82;21074;-64
2022/04/28 12:03:30;;;;;;;5.25;2.42;;;;;;;21.76;23.71;99818.48;1724165;82;21877;-65
2022/04/28 12:05:56;;;;;;;3.12;2.20;;;;;;;21.81;23.86;99813.70;1732730;82;21002;-67
2022/04/28 12:08:24;;;;;;;3.27;2.10;;;;;;;21.90;23.43;99815.85;1732718;81;21094;-66
2022/04/28 12:19:19;;;;;;;2.12;1.90;;;;;;;21.96;23.13;99809.50;1732922;81;21454;-66
2022/04/28 12:21:44;;;;;;;6.00;2.47;;;;;;;22.05;23.11;99803.20;1732810;81;20936;-67
2022/04/28 12:24:16;;;;;;;8.83;2.67;;;;;;;22.01;23.32;99814.20;1732560;82;20896;-67
2022/04/28 12:26:45;;;;;;;4.58;2.55;;;;;;;21.98;23.56;99808.73;1732735;82;21438;-67
2022/04/28 12:29:15;;;;;;;3.83;2.80;;;;;;;21.96;23.49;99813.56;1732825;82;21268;-67